createdAt,value
2023-04-02T00:01:37.508Z,2.30
2023-04-02T00:04:16.538Z,1.70
2023-04-02T00:06:44.658Z,2.05
2023-04-02T00:09:24.196Z,1.70
2023-04-02T00:11:52.416Z,1.60
2023-04-02T00:14:24.001Z,2.03
2023-04-02T00:16:51.816Z,2.17
2023-04-02T00:19:23.823Z,1.80
2023-04-02T00:21:52.951Z,1.80
2023-04-02T00:24:21.787Z,1.50
2023-04-02T00:26:50.710Z,1.30
2023-04-02T00:29:18.048Z,1.42
2023-04-02T00:31:47.550Z,1.58
2023-04-02T00:34:20.782Z,1.45
2023-04-02T00:36:48.408Z,1.50
2023-04-02T00:39:21.433Z,1.30
2023-04-02T00:41:49.428Z,1.60
2023-04-02T00:44:17.466Z,1.20
2023-04-02T00:46:45.771Z,1.20
2023-04-02T00:49:21.303Z,1.40
2023-04-02T00:51:52.545Z,1.40
2023-04-02T00:54:23.045Z,1.50
2023-04-02T00:56:53.799Z,1.60
2023-04-02T00:59:27.436Z,1.50
2023-04-02T01:01:59.175Z,1.60
2023-04-02T01:04:32.315Z,1.40
2023-04-02T01:07:00.319Z,1.17
2023-04-02T01:09:44.748Z,1.38
2023-04-02T01:12:29.944Z,1.90
2023-04-02T01:15:03.643Z,1.70
2023-04-02T01:17:42.688Z,2.13
2023-04-02T01:20:49.675Z,1.35
2023-04-02T01:23:21.264Z,1.42
2023-04-02T01:25:57.192Z,1.55
2023-04-02T01:28:27.976Z,1.50
2023-04-02T01:30:58.565Z,1.50
2023-04-02T01:33:32.334Z,1.70
2023-04-02T01:36:06.908Z,2.00
2023-04-02T01:38:38.534Z,1.65
2023-04-02T01:41:09.584Z,1.50
2023-04-02T01:43:44.196Z,1.60
2023-04-02T01:46:26.634Z,1.70
2023-04-02T01:48:55.060Z,1.75
2023-04-02T01:51:31.572Z,1.70
2023-04-02T01:54:02.955Z,1.50
2023-04-02T01:56:30.409Z,1.67
2023-04-02T01:58:58.324Z,1.80
2023-04-02T02:01:33.068Z,1.42
2023-04-02T02:04:01.738Z,1.80
2023-04-02T02:06:28.855Z,1.40
2023-04-02T02:09:00.846Z,1.70
2023-04-02T02:11:30.335Z,1.88
2023-04-02T02:13:58.818Z,2.20
2023-04-02T02:16:26.899Z,1.50
2023-04-02T02:18:57.708Z,2.03
2023-04-02T02:21:37.005Z,2.17
2023-04-02T02:24:06.720Z,2.03
2023-04-02T02:26:34.967Z,1.63
2023-04-02T02:29:07.295Z,2.28
2023-04-02T02:31:36.491Z,2.00
2023-04-02T02:34:12.378Z,1.90
2023-04-02T02:36:47.070Z,2.30
2023-04-02T02:39:21.110Z,2.10
2023-04-02T02:41:54.708Z,2.20
2023-04-02T02:44:25.711Z,1.88
2023-04-02T02:46:58.469Z,2.22
2023-04-02T02:49:30.276Z,2.20
2023-04-02T02:52:04.063Z,2.15
2023-04-02T02:54:43.986Z,2.30
2023-04-02T02:57:17.928Z,2.10
2023-04-02T02:59:47.103Z,2.38
2023-04-02T03:02:15.798Z,2.22
2023-04-02T03:04:48.981Z,2.35
2023-04-02T03:07:19.021Z,2.15
2023-04-02T03:09:53.678Z,2.58
2023-04-02T03:12:40.544Z,2.42
2023-04-02T03:15:17.214Z,2.30
2023-04-02T03:17:51.535Z,2.92
2023-04-02T03:20:30.960Z,2.30
2023-04-02T03:23:06.030Z,2.60
2023-04-02T03:25:41.112Z,2.17
2023-04-02T03:28:14.123Z,2.53
2023-04-02T03:30:46.620Z,2.80
2023-04-02T03:33:23.857Z,2.78
2023-04-02T03:36:00.047Z,2.70
2023-04-02T03:38:30.138Z,2.55
2023-04-02T03:41:03.593Z,2.80
2023-04-02T03:43:37.040Z,2.70
2023-04-02T03:46:16.079Z,2.45
2023-04-02T03:48:46.031Z,2.70
2023-04-02T03:51:21.522Z,2.33
2023-04-02T03:53:49.177Z,3.08
2023-04-02T03:56:26.428Z,2.85
2023-04-02T03:59:00.930Z,3.00
2023-04-02T04:01:33.041Z,3.22
2023-04-02T04:04:06.792Z,3.53
2023-04-02T04:06:41.177Z,3.70
2023-04-02T04:09:11.763Z,3.72
2023-04-02T04:11:43.939Z,4.20
2023-04-02T04:14:17.582Z,3.90
2023-04-02T04:16:49.185Z,2.45
2023-04-02T04:21:46.081Z,1.80
2023-04-02T04:24:22.908Z,1.45
2023-04-02T04:26:58.467Z,1.13
2023-04-02T04:29:34.054Z,1.15
2023-04-02T04:32:17.843Z,0.93
2023-04-02T04:34:48.954Z,0.90
2023-04-02T04:37:23.182Z,0.70
2023-04-02T04:39:56.206Z,0.60
2023-04-02T04:42:26.919Z,0.70
2023-04-02T04:45:01.027Z,0.80
2023-04-02T04:47:33.239Z,1.55
2023-04-02T04:50:07.396Z,0.60
2023-04-02T04:52:42.391Z,0.88
2023-04-02T04:55:26.722Z,0.60
2023-04-02T04:57:59.944Z,0.73
2023-04-02T05:00:35.218Z,1.55
2023-04-02T05:03:08.824Z,0.65
2023-04-02T05:05:39.322Z,0.63
2023-04-02T05:08:14.462Z,0.80
2023-04-02T05:10:45.923Z,1.00
2023-04-02T05:13:20.659Z,0.82
2023-04-02T05:15:55.029Z,0.90
2023-04-02T05:18:28.439Z,1.00
2023-04-02T05:21:02.860Z,0.93
2023-04-02T05:23:37.085Z,0.75
2023-04-02T05:26:08.686Z,0.82
2023-04-02T05:28:40.707Z,0.80
2023-04-02T05:31:11.983Z,0.98
2023-04-02T05:33:39.810Z,0.70
2023-04-02T05:36:11.656Z,0.90
2023-04-02T05:38:49.871Z,0.85
2023-04-02T05:41:26.311Z,0.88
2023-04-02T05:44:06.048Z,0.90
2023-04-02T05:46:41.394Z,0.98
2023-04-02T05:49:15.983Z,1.20
2023-04-02T05:51:46.964Z,1.48
2023-04-02T05:54:22.136Z,1.02
2023-04-02T05:56:54.586Z,1.17
2023-04-02T06:01:55.503Z,0.98
2023-04-02T06:04:35.488Z,1.30
2023-04-02T06:07:08.177Z,1.50
2023-04-02T06:09:43.392Z,0.93
2023-04-02T06:12:22.608Z,0.80
2023-04-02T06:14:50.146Z,1.25
2023-04-02T06:17:19.466Z,1.00
2023-04-02T06:19:46.439Z,0.70
2023-04-02T06:22:24.204Z,0.98
2023-04-02T06:25:01.542Z,0.73
2023-04-02T06:27:30.553Z,0.70
2023-04-02T06:30:02.665Z,0.65
2023-04-02T06:32:31.263Z,0.68
2023-04-02T06:34:57.994Z,0.50
2023-04-02T06:37:30.263Z,0.57
2023-04-02T06:40:32.010Z,0.50
2023-04-02T06:43:05.713Z,0.50
2023-04-02T06:45:58.085Z,0.60
2023-04-02T06:48:47.531Z,0.60
2023-04-02T06:51:18.174Z,0.50
2023-04-02T06:53:48.261Z,0.40
2023-04-02T06:56:25.472Z,0.43
2023-04-02T06:58:52.136Z,0.60
2023-04-02T07:01:24.041Z,0.52
2023-04-02T07:03:51.493Z,0.50
2023-04-02T07:06:23.559Z,0.50
2023-04-02T07:08:53.156Z,0.60
2023-04-02T07:11:23.182Z,0.68
2023-04-02T07:13:52.815Z,0.65
2023-04-02T07:16:21.966Z,0.90
2023-04-02T07:18:49.524Z,0.65
2023-04-02T07:21:16.688Z,0.85
2023-04-02T07:23:44.494Z,0.50
2023-04-02T07:26:14.781Z,0.80
2023-04-02T07:28:43.016Z,0.63
2023-04-02T07:31:16.174Z,0.60
2023-04-02T07:33:43.372Z,0.88
2023-04-02T07:36:13.957Z,1.08
2023-04-02T07:38:40.579Z,0.90
2023-04-02T07:41:07.832Z,1.17
2023-04-02T07:43:34.466Z,0.80
2023-04-02T07:46:02.843Z,0.60
2023-04-02T07:48:29.702Z,0.65
2023-04-02T07:50:56.413Z,0.57
2023-04-02T07:53:28.851Z,0.80
2023-04-02T07:55:55.775Z,0.63
2023-04-02T07:58:22.388Z,0.60
2023-04-02T08:00:49.148Z,0.50
2023-04-02T08:03:17.135Z,0.70
2023-04-02T08:05:49.052Z,0.60
2023-04-02T08:10:42.224Z,0.40
2023-04-02T08:13:08.844Z,0.30
2023-04-02T08:15:35.485Z,0.47
2023-04-02T08:18:02.415Z,0.60
2023-04-02T08:20:30.399Z,1.13
2023-04-02T08:22:57.289Z,0.75
2023-04-02T08:25:24.179Z,0.90
2023-04-02T08:27:50.808Z,0.50
2023-04-02T08:30:17.686Z,0.43
2023-04-02T08:32:44.385Z,0.60
2023-04-02T08:35:15.761Z,0.60
2023-04-02T08:37:44.077Z,0.60
2023-04-02T08:40:21.437Z,0.60
2023-04-02T08:43:03.921Z,0.70
2023-04-02T08:45:41.547Z,0.70
2023-04-02T08:48:10.737Z,0.70
2023-04-02T08:50:40.055Z,0.80
2023-04-02T08:53:16.055Z,0.70
2023-04-02T08:55:48.284Z,0.50
2023-04-02T08:58:26.184Z,0.80
2023-04-02T09:00:55.302Z,0.80
2023-04-02T09:03:28.358Z,0.77
2023-04-02T09:05:56.392Z,0.98
2023-04-02T09:08:26.612Z,0.95
2023-04-02T09:10:58.598Z,1.05
2023-04-02T09:13:28.352Z,1.00
2023-04-02T09:16:01.228Z,1.00
2023-04-02T09:18:30.283Z,1.10
2023-04-02T09:20:56.899Z,1.10
2023-04-02T09:23:27.264Z,1.20
2023-04-02T09:26:03.700Z,1.25
2023-04-02T09:28:31.590Z,1.33
2023-04-02T09:31:12.259Z,1.35
2023-04-02T09:33:44.516Z,1.92
2023-04-02T09:36:32.239Z,1.35
2023-04-02T09:39:04.540Z,1.60
2023-04-02T09:41:31.248Z,1.90
2023-04-02T09:44:28.365Z,1.63
2023-04-02T09:46:56.567Z,1.95
2023-04-02T09:49:26.589Z,2.15
2023-04-02T09:52:19.731Z,1.77
2023-04-02T09:55:04.610Z,2.17
2023-04-02T09:57:31.342Z,2.00
2023-04-02T10:00:14.623Z,1.70
2023-04-02T10:03:01.640Z,1.92
2023-04-02T10:05:39.885Z,2.20
2023-04-02T10:08:16.522Z,2.00
2023-04-02T10:10:49.399Z,2.00
2023-04-02T10:13:21.384Z,1.90
2023-04-02T10:15:53.516Z,2.20
2023-04-02T10:18:27.835Z,1.92
2023-04-02T10:20:55.780Z,2.08
2023-04-02T10:23:27.639Z,2.00
2023-04-02T10:28:43.672Z,1.90
2023-04-02T10:31:15.847Z,1.90
2023-04-02T10:33:47.268Z,1.88
2023-04-02T10:36:23.633Z,1.75
2023-04-02T10:38:53.016Z,1.70
2023-04-02T10:41:31.214Z,2.00
2023-04-02T10:44:20.614Z,2.17
2023-04-02T10:46:58.208Z,2.17
2023-04-02T10:49:35.473Z,2.25
2023-04-02T10:52:08.905Z,2.00
2023-04-02T10:54:45.986Z,2.20
2023-04-02T10:57:26.258Z,2.10
2023-04-02T10:59:56.052Z,2.03
2023-04-02T11:02:39.135Z,1.75
2023-04-02T11:05:16.996Z,2.08
2023-04-02T11:07:55.270Z,1.80
2023-04-02T11:10:22.670Z,2.03
2023-04-02T11:12:55.581Z,2.00
2023-04-02T11:15:22.981Z,1.80
2023-04-02T11:17:50.077Z,2.00
2023-04-02T11:21:02.778Z,1.80
2023-04-02T11:23:32.872Z,1.83
2023-04-02T11:26:41.175Z,1.50
2023-04-02T11:29:27.092Z,1.80
2023-04-02T11:32:15.328Z,1.50
2023-04-02T11:35:23.173Z,1.60
2023-04-02T11:37:49.916Z,1.60
2023-04-02T11:40:42.938Z,1.67
2023-04-02T11:43:45.551Z,1.80
2023-04-02T11:46:40.954Z,1.83
2023-04-02T11:49:36.571Z,1.70
2023-04-02T11:52:12.066Z,2.22
2023-04-02T11:54:40.361Z,1.90
2023-04-02T11:57:21.453Z,2.10
2023-04-02T12:00:00.359Z,1.92
2023-04-02T12:02:36.120Z,1.80
2023-04-02T12:05:15.271Z,1.92
2023-04-02T12:07:59.312Z,2.25
2023-04-02T12:10:31.905Z,2.17
2023-04-02T12:12:58.528Z,2.00
2023-04-02T12:15:42.581Z,1.80
2023-04-02T12:18:17.061Z,2.50
2023-04-02T12:20:49.192Z,2.33
2023-04-02T12:23:21.500Z,1.95
2023-04-02T12:25:56.330Z,2.20
2023-04-02T12:28:22.958Z,1.90
2023-04-02T12:30:51.558Z,1.92
2023-04-02T12:33:29.629Z,1.75
2023-04-02T12:35:58.631Z,1.80
2023-04-02T12:38:27.663Z,1.77
2023-04-02T12:40:55.590Z,2.15
2023-04-02T12:43:27.509Z,1.77
2023-04-02T12:45:55.095Z,1.70
2023-04-02T12:48:24.273Z,1.58
2023-04-02T12:50:53.121Z,2.92
2023-04-02T12:53:22.734Z,2.03
2023-04-02T12:55:50.783Z,1.70
2023-04-02T12:58:30.002Z,1.67
2023-04-02T13:01:10.447Z,1.60
2023-04-02T13:03:37.185Z,1.60
2023-04-02T13:06:20.913Z,1.80
2023-04-02T13:08:47.835Z,1.40
2023-04-02T13:11:14.597Z,1.25
2023-04-02T13:13:43.750Z,0.95
2023-04-02T13:16:27.482Z,1.45
2023-04-02T13:19:11.088Z,1.20
2023-04-02T13:21:39.151Z,1.40
2023-04-02T13:24:16.498Z,0.90
2023-04-02T13:26:43.188Z,1.10
2023-04-02T13:29:19.476Z,1.05
2023-04-02T13:31:46.083Z,1.08
2023-04-02T13:34:12.651Z,1.00
2023-04-02T13:36:40.621Z,1.10
2023-04-02T13:39:07.185Z,1.00
2023-04-02T13:41:40.593Z,1.00
2023-04-02T13:44:07.548Z,0.80
2023-04-02T13:46:35.654Z,0.80
2023-04-02T13:49:02.369Z,0.80
2023-04-02T13:51:35.751Z,0.90
2023-04-02T13:54:09.069Z,0.77
2023-04-02T13:56:35.799Z,0.80
2023-04-02T13:59:02.428Z,0.80
2023-04-02T14:01:29.218Z,0.80
2023-04-02T14:03:56.021Z,0.95
2023-04-02T14:06:31.042Z,1.27
2023-04-02T14:09:04.765Z,1.48
2023-04-02T14:11:45.915Z,1.25
2023-04-02T14:14:29.074Z,1.10
2023-04-02T14:17:09.738Z,1.30
2023-04-02T14:19:52.532Z,1.40
2023-04-02T14:22:30.122Z,1.65
2023-04-02T14:25:09.220Z,1.50
2023-04-02T14:27:42.716Z,1.38
2023-04-02T14:30:18.417Z,1.33
2023-04-02T14:32:53.438Z,1.73
2023-04-02T14:35:25.736Z,1.60
2023-04-02T14:38:00.784Z,1.33
2023-04-02T14:40:36.616Z,1.23
2023-04-02T14:43:07.926Z,1.40
2023-04-02T14:45:48.892Z,1.40
2023-04-02T14:48:27.838Z,1.30
2023-04-02T14:50:59.643Z,1.05
2023-04-02T14:55:59.300Z,0.85
2023-04-02T14:58:30.934Z,1.15
2023-04-02T15:01:02.237Z,1.30
2023-04-02T15:03:33.575Z,1.55
2023-04-02T15:06:02.332Z,0.98
2023-04-02T15:08:31.191Z,1.00
2023-04-02T15:11:08.529Z,1.10
2023-04-02T15:13:37.971Z,1.48
2023-04-02T15:16:11.453Z,1.20
2023-04-02T15:18:38.440Z,1.30
2023-04-02T15:21:21.632Z,1.67
2023-04-02T15:23:56.047Z,1.40
2023-04-02T15:26:31.714Z,1.10
2023-04-02T15:29:09.266Z,1.45
2023-04-02T15:31:42.515Z,0.93
2023-04-02T15:34:23.166Z,1.00
2023-04-02T15:37:05.187Z,1.15
2023-04-02T15:42:16.201Z,1.08
2023-04-02T15:44:56.939Z,1.20
2023-04-02T15:47:36.833Z,1.77
2023-04-02T15:50:16.799Z,0.82
2023-04-02T15:52:54.227Z,1.00
2023-04-02T15:55:25.241Z,1.27
2023-04-02T15:58:22.750Z,1.13
2023-04-02T16:01:00.733Z,1.20
2023-04-02T16:03:49.285Z,1.20
2023-04-02T16:06:38.493Z,1.00
2023-04-02T16:09:21.291Z,0.90
2023-04-02T16:11:51.407Z,1.00
2023-04-02T16:14:26.386Z,1.10
2023-04-02T16:16:56.246Z,0.95
2023-04-02T16:19:28.734Z,0.93
2023-04-02T16:22:02.709Z,1.02
2023-04-02T16:24:29.347Z,1.00
2023-04-02T16:26:59.529Z,1.08
2023-04-02T16:29:53.887Z,1.17
2023-04-02T16:32:37.964Z,0.90
2023-04-02T16:35:40.590Z,1.10
2023-04-02T16:38:14.843Z,1.10
2023-04-02T16:40:57.190Z,1.00
2023-04-02T16:43:37.252Z,1.05
2023-04-02T16:46:13.109Z,1.85
2023-04-02T16:48:48.570Z,1.10
2023-04-02T16:51:20.401Z,1.00
2023-04-02T16:54:01.433Z,1.95
2023-04-02T16:56:42.393Z,1.25
2023-04-02T16:59:19.245Z,1.30
2023-04-02T17:01:57.628Z,1.50
2023-04-02T17:04:47.184Z,1.10
2023-04-02T17:07:26.679Z,1.70
2023-04-02T17:10:02.332Z,1.20
2023-04-02T17:12:37.252Z,1.38
2023-04-02T17:15:17.187Z,1.20
2023-04-02T17:17:58.312Z,1.17
2023-04-02T17:20:27.313Z,1.20
2023-04-02T17:22:54.281Z,2.10
2023-04-02T17:25:25.293Z,1.08
2023-04-02T17:27:54.939Z,1.80
2023-04-02T17:30:32.229Z,1.30
2023-04-02T17:33:00.358Z,1.52
2023-04-02T17:35:33.159Z,1.38
2023-04-02T17:38:09.307Z,1.30
2023-04-02T17:40:41.959Z,1.20
2023-04-02T17:43:15.662Z,1.30
2023-04-02T17:45:47.803Z,1.30
2023-04-02T17:48:21.464Z,1.63
2023-04-02T17:51:09.437Z,1.63
2023-04-02T17:53:44.631Z,1.50
2023-04-02T17:56:26.817Z,1.30
2023-04-02T17:59:18.958Z,1.55
2023-04-02T18:01:54.168Z,1.30
2023-04-02T18:04:34.235Z,1.58
2023-04-02T18:07:28.604Z,1.40
2023-04-02T18:10:03.149Z,1.30
2023-04-02T18:12:47.003Z,1.20
2023-04-02T18:15:36.252Z,1.42
2023-04-02T18:18:17.670Z,1.35
2023-04-02T18:20:57.152Z,1.45
2023-04-02T18:23:34.467Z,0.90
2023-04-02T18:26:09.838Z,1.48
2023-04-02T18:28:51.829Z,1.45
2023-04-02T18:34:22.742Z,1.30
2023-04-02T18:37:04.829Z,1.30
2023-04-02T18:42:09.538Z,1.30
2023-04-02T18:44:50.960Z,1.30
2023-04-02T18:47:25.015Z,1.20
2023-04-02T18:49:58.774Z,1.23
2023-04-02T18:52:28.959Z,1.10
2023-04-02T18:55:01.163Z,1.40
2023-04-02T18:57:31.049Z,1.15
2023-04-02T19:00:03.229Z,1.65
2023-04-02T19:02:41.352Z,1.20
2023-04-02T19:05:20.211Z,1.65
2023-04-02T19:07:51.952Z,1.83
2023-04-02T19:10:27.577Z,2.08
2023-04-02T19:12:54.265Z,1.52
2023-04-02T19:15:23.454Z,1.40
2023-04-02T19:18:00.409Z,1.40
2023-04-02T19:20:33.956Z,1.40
2023-04-02T19:23:18.016Z,2.05
2023-04-02T19:26:00.030Z,1.23
2023-04-02T19:28:32.401Z,1.77
2023-04-02T19:31:12.240Z,1.40
2023-04-02T19:33:47.964Z,1.73
2023-04-02T19:36:37.989Z,1.50
2023-04-02T19:39:37.347Z,1.27
2023-04-02T19:42:12.780Z,1.20
2023-04-02T19:44:46.585Z,1.13
2023-04-02T19:47:14.297Z,0.95
2023-04-02T19:49:42.365Z,1.40
2023-04-02T19:52:09.075Z,1.30
2023-04-02T19:54:38.311Z,1.10
2023-04-02T19:57:05.624Z,1.45
2023-04-02T19:59:32.265Z,1.40
2023-04-02T20:01:59.056Z,1.45
2023-04-02T20:04:25.746Z,1.15
2023-04-02T20:06:52.544Z,1.30
2023-04-02T20:09:19.109Z,1.10
2023-04-02T20:11:47.070Z,1.20
2023-04-02T20:14:13.676Z,1.00
2023-04-02T20:16:40.420Z,1.10
2023-04-02T20:19:07.046Z,1.15
2023-04-02T20:21:33.729Z,1.15
2023-04-02T20:24:00.551Z,1.00
2023-04-02T20:26:27.423Z,1.10
2023-04-02T20:28:55.656Z,1.40
2023-04-02T20:31:22.279Z,1.13
2023-04-02T20:33:49.155Z,1.30
2023-04-02T20:36:17.704Z,1.20
2023-04-02T20:38:44.721Z,1.20
2023-04-02T20:41:11.360Z,1.33
2023-04-02T20:43:38.020Z,1.20
2023-04-02T20:46:06.543Z,1.25
2023-04-02T20:48:34.813Z,1.30
2023-04-02T20:51:03.857Z,1.00
2023-04-02T20:53:32.483Z,1.13
2023-04-02T20:56:03.010Z,1.35
2023-04-02T20:58:29.663Z,1.20
2023-04-02T21:01:07.346Z,1.42
2023-04-02T21:03:34.142Z,1.10
2023-04-02T21:06:00.897Z,1.08
2023-04-02T21:08:27.885Z,1.30
2023-04-02T21:11:01.428Z,1.10
2023-04-02T21:13:28.864Z,1.40
2023-04-02T21:15:55.454Z,1.33
2023-04-02T21:18:23.502Z,1.40
2023-04-02T21:20:56.719Z,1.13
2023-04-02T21:23:23.405Z,1.30
2023-04-02T21:25:55.615Z,1.48
2023-04-02T21:28:22.470Z,1.40
2023-04-02T21:30:49.045Z,1.30
2023-04-02T21:33:17.339Z,1.80
2023-04-02T21:35:45.327Z,2.72
2023-04-02T21:38:12.005Z,2.10
2023-04-02T21:40:38.749Z,1.50
2023-04-02T21:43:05.869Z,1.75
2023-04-02T21:45:32.498Z,1.85
2023-04-02T21:47:59.205Z,1.15
2023-04-02T21:50:25.897Z,1.40
2023-04-02T21:52:54.126Z,1.50
2023-04-02T21:55:20.734Z,1.35
2023-04-02T21:57:47.345Z,1.40
2023-04-02T22:00:14.817Z,1.52
2023-04-02T22:02:41.526Z,1.40
2023-04-02T22:05:08.787Z,1.52
2023-04-02T22:07:35.470Z,1.42
2023-04-02T22:10:03.857Z,1.40
2023-04-02T22:12:30.509Z,1.20
2023-04-02T22:14:57.094Z,1.38
2023-04-02T22:17:23.815Z,1.60
2023-04-02T22:19:50.598Z,1.50
2023-04-02T22:22:17.286Z,1.48
2023-04-02T22:24:43.839Z,1.40
2023-04-02T22:27:11.835Z,1.30
2023-04-02T22:29:38.398Z,1.40
2023-04-02T22:32:05.365Z,1.30
2023-04-02T22:34:32.010Z,1.50
2023-04-02T22:36:58.687Z,1.40
2023-04-02T22:39:25.236Z,1.20
2023-04-02T22:41:51.876Z,1.00
2023-04-02T22:44:19.887Z,1.50
2023-04-02T22:46:47.013Z,1.38
2023-04-02T22:49:13.548Z,1.90
2023-04-02T22:51:40.179Z,1.30
2023-04-02T22:54:07.764Z,1.70
2023-04-02T22:56:34.413Z,1.30
2023-04-02T22:59:00.993Z,1.30
2023-04-02T23:01:31.664Z,1.35
2023-04-02T23:03:58.348Z,1.73
2023-04-02T23:06:25.392Z,1.60
2023-04-02T23:08:52.324Z,1.75
2023-04-02T23:11:20.534Z,1.42
2023-04-02T23:13:49.192Z,1.35
2023-04-02T23:16:17.042Z,1.60
2023-04-02T23:18:46.280Z,1.48
2023-04-02T23:21:13.137Z,1.25
2023-04-02T23:23:40.123Z,1.40
2023-04-02T23:26:08.444Z,1.42
2023-04-02T23:28:36.236Z,2.03
2023-04-02T23:31:04.134Z,1.30
2023-04-02T23:33:30.779Z,2.13
2023-04-02T23:35:58.839Z,1.30
2023-04-02T23:38:26.110Z,1.58
2023-04-02T23:40:53.179Z,1.88
2023-04-02T23:43:19.910Z,1.58
2023-04-02T23:45:48.388Z,1.70
2023-04-02T23:48:15.297Z,1.80
2023-04-02T23:50:41.886Z,1.65
2023-04-02T23:53:09.830Z,1.83
2023-04-02T23:55:36.380Z,1.65
2023-04-02T23:58:03.033Z,1.55
